Huvudsida
METAR-TAF:

METAR-TAF

Flygplatser :

Ferrara, Italien

latitud: 44-50N, longitud: 011-37E, höjd: 10 m

Aktuellt väderrapport

Denna rapport gjordes för 1 timme och 7 minuter sedan, klockan 09:55 UTC
Vind 2 kt från syd/sydväst
Temperatur 18°C
Fuktighet 77%
Tryck 1005 hPa
Sikt 10 km eller mer
Få moln på en höjd av 2000 ft
Brutna moln på en höjd av 8000 ft

METAR: LIPF 200955Z 21002KT 9999 FEW020 BKN080 18/14 Q1005

Tid: 13:02 (11:02 UTC)


TAF: saknas

Aktuella väderrapporter och prognoser från 4000 flygplatser (METAR- och TAF-rapporter).

De tillgängliga stationerna syns som gula och röda prickar på kartan.

För musen över prickarna för att se namnen på stationerna.

Klicka sedan för att få väderrapporter och prognoser.

För att ändra kartan: Klicka på de gröna knapparna med ett svart kors på för att zooma in; den gröna knappen med ett streck på för att zooma ut; eller på de gröna pilarna för angränsande kartor.


METAR-TAF: